createdAt,value
2023-03-04T00:02:06.752Z,8.00
2023-03-04T00:04:33.095Z,7.99
2023-03-04T00:06:59.443Z,7.95
2023-03-04T00:09:25.834Z,7.94
2023-03-04T00:11:52.160Z,7.90
2023-03-04T00:14:18.629Z,7.88
2023-03-04T00:16:45.083Z,7.86
2023-03-04T00:19:11.544Z,7.88
2023-03-04T00:21:37.895Z,7.86
2023-03-04T00:24:04.312Z,7.84
2023-03-04T00:26:30.774Z,7.83
2023-03-04T00:28:57.109Z,7.81
2023-03-04T00:31:23.607Z,7.80
2023-03-04T00:33:50.131Z,7.77
2023-03-04T00:36:16.466Z,7.76
2023-03-04T00:38:42.774Z,7.77
2023-03-04T00:41:09.143Z,7.75
2023-03-04T00:43:35.496Z,7.76
2023-03-04T00:46:02.117Z,7.76
2023-03-04T00:48:28.498Z,7.77
2023-03-04T00:50:54.811Z,7.77
2023-03-04T00:53:23.855Z,7.77
2023-03-04T00:55:50.278Z,7.78
2023-03-04T00:58:16.762Z,7.79
2023-03-04T01:00:43.180Z,7.79
2023-03-04T01:03:09.531Z,7.80
2023-03-04T01:05:36.078Z,7.81
2023-03-04T01:08:03.714Z,7.81
2023-03-04T01:10:30.133Z,7.84
2023-03-04T01:12:56.841Z,7.85
2023-03-04T01:15:23.458Z,7.86
2023-03-04T01:17:50.023Z,7.89
2023-03-04T01:20:16.975Z,7.88
2023-03-04T01:22:43.351Z,7.89
2023-03-04T01:25:10.322Z,7.87
2023-03-04T01:27:36.740Z,7.87
2023-03-04T01:30:04.742Z,7.86
2023-03-04T01:32:31.159Z,7.86
2023-03-04T01:34:57.642Z,7.85
2023-03-04T01:37:24.050Z,7.86
2023-03-04T01:39:50.460Z,7.87
2023-03-04T01:42:22.387Z,7.89
2023-03-04T01:44:51.004Z,7.87
2023-03-04T01:47:18.861Z,7.89
2023-03-04T01:49:50.746Z,7.88
2023-03-04T01:52:17.065Z,7.88
2023-03-04T01:54:43.513Z,7.88
2023-03-04T01:57:21.635Z,7.86
2023-03-04T02:00:08.237Z,7.87
2023-03-04T02:02:34.571Z,7.85
2023-03-04T02:05:00.948Z,7.84
2023-03-04T02:07:27.292Z,7.84
2023-03-04T02:09:53.637Z,7.84
2023-03-04T02:12:20.029Z,7.84
2023-03-04T02:14:46.382Z,7.84
2023-03-04T02:17:13.408Z,7.84
2023-03-04T02:19:50.820Z,7.84
2023-03-04T02:22:17.265Z,7.85
2023-03-04T02:24:49.555Z,7.86
2023-03-04T02:27:16.156Z,7.84
2023-03-04T02:29:42.576Z,7.85
2023-03-04T02:32:12.992Z,7.84
2023-03-04T02:34:46.875Z,7.84
2023-03-04T02:37:13.990Z,7.82
2023-03-04T02:39:43.180Z,7.82
2023-03-04T02:42:10.171Z,7.81
2023-03-04T02:44:39.173Z,7.81
2023-03-04T02:47:08.427Z,7.80
2023-03-04T02:49:36.967Z,7.79
2023-03-04T02:52:22.198Z,7.80
2023-03-04T02:54:48.723Z,7.79
2023-03-04T02:57:15.736Z,7.78
2023-03-04T02:59:42.688Z,7.77
2023-03-04T03:02:09.646Z,7.77
2023-03-04T03:04:38.209Z,7.77
2023-03-04T03:07:05.055Z,7.77
2023-03-04T03:09:31.674Z,7.77
2023-03-04T03:11:58.050Z,7.77
2023-03-04T03:14:24.369Z,7.77
2023-03-04T03:16:50.704Z,7.77
2023-03-04T03:19:17.022Z,7.78
2023-03-04T03:21:43.395Z,7.78
2023-03-04T03:24:09.871Z,7.77
2023-03-04T03:26:36.250Z,7.78
2023-03-04T03:29:02.661Z,7.78
2023-03-04T03:31:29.229Z,7.79
2023-03-04T03:33:55.577Z,7.78
2023-03-04T03:36:22.080Z,7.77
2023-03-04T03:38:48.397Z,7.77
2023-03-04T03:41:14.728Z,7.76
2023-03-04T03:43:41.053Z,7.76
2023-03-04T03:46:07.412Z,7.75
2023-03-04T03:48:33.818Z,7.75
2023-03-04T03:51:00.162Z,7.75
2023-03-04T03:53:26.481Z,7.74
2023-03-04T03:55:52.846Z,7.74
2023-03-04T03:58:19.233Z,7.75
2023-03-04T04:00:45.575Z,7.75
2023-03-04T04:03:15.592Z,7.76
2023-03-04T04:05:41.947Z,7.75
2023-03-04T04:08:12.967Z,7.76
2023-03-04T04:10:39.422Z,7.77
2023-03-04T04:13:05.744Z,7.77
2023-03-04T04:15:32.151Z,7.77
2023-03-04T04:17:58.525Z,7.77
2023-03-04T04:20:26.249Z,7.78
2023-03-04T04:22:52.807Z,7.78
2023-03-04T04:25:19.175Z,7.78
2023-03-04T04:27:45.517Z,7.78
2023-03-04T04:30:12.391Z,7.78
2023-03-04T04:32:38.720Z,7.79
2023-03-04T04:35:05.584Z,7.79
2023-03-04T04:37:32.046Z,7.78
2023-03-04T04:39:58.420Z,7.78
2023-03-04T04:42:25.000Z,7.78
2023-03-04T04:44:52.536Z,7.79
2023-03-04T04:47:18.853Z,7.80
2023-03-04T04:49:45.192Z,7.80
2023-03-04T04:52:11.807Z,7.79
2023-03-04T04:54:38.138Z,7.80
2023-03-04T04:57:04.766Z,7.80
2023-03-04T04:59:31.078Z,7.80
2023-03-04T05:01:57.552Z,7.78
2023-03-04T05:04:24.025Z,7.78
2023-03-04T05:06:50.374Z,7.76
2023-03-04T05:09:16.760Z,7.76
2023-03-04T05:11:43.092Z,7.75
2023-03-04T05:14:09.429Z,7.74
2023-03-04T05:16:35.869Z,7.74
2023-03-04T05:19:02.200Z,7.72
2023-03-04T05:21:28.589Z,7.73
2023-03-04T05:23:55.245Z,7.73
2023-03-04T05:26:21.591Z,7.73
2023-03-04T05:28:48.059Z,7.72
2023-03-04T05:31:14.855Z,7.72
2023-03-04T05:33:41.280Z,7.74
2023-03-04T05:36:08.065Z,7.74
2023-03-04T05:38:34.914Z,7.73
2023-03-04T05:41:05.366Z,7.73
2023-03-04T05:43:34.173Z,7.72
2023-03-04T05:46:00.515Z,7.71
2023-03-04T05:48:28.880Z,7.72
2023-03-04T05:51:00.787Z,7.72
2023-03-04T05:53:28.078Z,7.72
2023-03-04T05:55:54.555Z,7.73
2023-03-04T05:58:21.822Z,7.74
2023-03-04T06:00:48.454Z,7.74
2023-03-04T06:03:22.466Z,7.74
2023-03-04T06:05:49.017Z,7.73
2023-03-04T06:08:15.425Z,7.73
2023-03-04T06:10:42.105Z,7.72
2023-03-04T06:13:09.247Z,7.70
2023-03-04T06:15:35.765Z,7.68
2023-03-04T06:18:02.279Z,7.67
2023-03-04T06:20:28.791Z,7.67
2023-03-04T06:22:55.480Z,7.66
2023-03-04T06:25:22.111Z,7.66
2023-03-04T06:27:50.622Z,7.65
2023-03-04T06:30:18.049Z,7.65
2023-03-04T06:32:44.478Z,7.66
2023-03-04T06:35:12.025Z,7.65
2023-03-04T06:37:38.522Z,7.64
2023-03-04T06:40:05.781Z,7.66
2023-03-04T06:42:32.137Z,7.67
2023-03-04T06:44:58.475Z,7.68
2023-03-04T06:47:24.913Z,7.68
2023-03-04T06:49:51.354Z,7.69
2023-03-04T06:52:17.848Z,7.70
2023-03-04T06:54:44.327Z,7.71
2023-03-04T06:57:10.636Z,7.72
2023-03-04T06:59:37.027Z,7.72
2023-03-04T07:02:03.450Z,7.74
2023-03-04T07:04:29.795Z,7.75
2023-03-04T07:06:56.197Z,7.75
2023-03-04T07:09:22.544Z,7.74
2023-03-04T07:11:48.926Z,7.76
2023-03-04T07:14:15.607Z,7.76
2023-03-04T07:16:42.007Z,7.77
2023-03-04T07:19:08.423Z,7.79
2023-03-04T07:21:34.865Z,7.81
2023-03-04T07:24:02.502Z,7.83
2023-03-04T07:26:28.815Z,7.86
2023-03-04T07:28:57.139Z,7.90
2023-03-04T07:31:32.443Z,7.94
2023-03-04T07:34:04.348Z,7.95
2023-03-04T07:36:30.714Z,7.95
2023-03-04T07:38:57.194Z,7.95
2023-03-04T07:41:27.656Z,7.95
2023-03-04T07:44:00.756Z,7.96
2023-03-04T07:46:27.410Z,7.95
2023-03-04T07:48:55.852Z,7.96
2023-03-04T07:51:24.312Z,7.98
2023-03-04T07:53:58.018Z,7.98
2023-03-04T07:56:27.812Z,7.98
2023-03-04T07:58:56.584Z,7.96
2023-03-04T08:01:31.113Z,7.95
2023-03-04T08:03:58.145Z,7.93
2023-03-04T08:06:26.706Z,7.91
2023-03-04T08:09:01.791Z,7.89
2023-03-04T08:11:29.940Z,7.87
2023-03-04T08:13:56.479Z,7.86
2023-03-04T08:16:24.297Z,7.85
2023-03-04T08:18:56.125Z,7.86
2023-03-04T08:21:24.711Z,7.83
2023-03-04T08:23:51.580Z,7.85
2023-03-04T08:26:23.313Z,7.86
2023-03-04T08:28:50.186Z,7.88
2023-03-04T08:31:18.137Z,7.90
2023-03-04T08:33:45.254Z,7.91
2023-03-04T08:36:12.820Z,7.93
2023-03-04T08:38:39.482Z,7.94
2023-03-04T08:41:06.341Z,7.93
2023-03-04T08:43:34.608Z,7.93
2023-03-04T08:46:01.264Z,7.95
2023-03-04T08:48:27.856Z,7.95
2023-03-04T08:50:54.626Z,7.97
2023-03-04T08:53:21.649Z,7.99
2023-03-04T08:55:50.334Z,8.01
2023-03-04T08:58:16.962Z,8.03
2023-03-04T09:00:48.273Z,8.07
2023-03-04T09:03:17.059Z,8.07
2023-03-04T09:05:45.705Z,8.09
2023-03-04T09:08:12.912Z,8.09
2023-03-04T09:10:39.704Z,8.10
2023-03-04T09:13:06.437Z,8.12
2023-03-04T09:15:35.984Z,8.11
2023-03-04T09:18:03.718Z,8.11
2023-03-04T09:20:31.389Z,8.13
2023-03-04T09:22:57.883Z,8.13
2023-03-04T09:25:24.476Z,8.12
2023-03-04T09:27:50.966Z,8.11
2023-03-04T09:30:17.599Z,8.14
2023-03-04T09:32:43.946Z,8.15
2023-03-04T09:35:10.691Z,8.18
2023-03-04T09:37:38.689Z,8.23
2023-03-04T09:40:08.191Z,8.28
2023-03-04T09:42:47.295Z,8.38
2023-03-04T09:45:18.651Z,8.46
2023-03-04T09:47:46.762Z,8.52
2023-03-04T09:50:13.408Z,8.61
2023-03-04T09:53:02.900Z,8.67
2023-03-04T09:55:37.366Z,8.71
2023-03-04T09:58:22.028Z,8.74
2023-03-04T10:00:56.874Z,8.78
2023-03-04T10:03:43.242Z,8.81
2023-03-04T10:06:17.799Z,8.85
2023-03-04T10:09:04.136Z,8.88
2023-03-04T10:11:34.061Z,8.91
2023-03-04T10:14:21.437Z,8.93
2023-03-04T10:16:56.530Z,8.92
2023-03-04T10:19:36.852Z,8.92
2023-03-04T10:22:17.019Z,8.96
2023-03-04T10:24:46.972Z,8.99
2023-03-04T10:27:17.190Z,9.07
2023-03-04T10:29:43.745Z,9.12
2023-03-04T10:32:20.775Z,9.20
2023-03-04T10:34:47.268Z,9.27
2023-03-04T10:37:13.689Z,9.31
2023-03-04T10:39:46.274Z,9.38
2023-03-04T10:42:15.668Z,9.46
2023-03-04T10:44:59.615Z,9.53
2023-03-04T10:47:32.648Z,9.60
2023-03-04T10:50:01.518Z,9.68
2023-03-04T10:52:35.136Z,9.74
2023-03-04T10:55:14.344Z,9.80
2023-03-04T10:57:43.602Z,9.84
2023-03-04T11:00:33.458Z,9.89
2023-03-04T11:03:27.861Z,9.96
2023-03-04T11:06:17.523Z,10.01
2023-03-04T11:08:44.903Z,10.05
2023-03-04T11:11:37.065Z,10.11
2023-03-04T11:14:17.171Z,10.16
2023-03-04T11:16:53.183Z,10.21
2023-03-04T11:19:22.687Z,10.26
2023-03-04T11:21:50.892Z,10.31
2023-03-04T11:24:29.379Z,10.39
2023-03-04T11:27:02.641Z,10.46
2023-03-04T11:29:51.552Z,10.53
2023-03-04T11:32:20.540Z,10.56
2023-03-04T11:34:53.053Z,10.54
2023-03-04T11:37:29.369Z,10.50
2023-03-04T11:40:12.428Z,10.42
2023-03-04T11:42:47.234Z,10.33
2023-03-04T11:45:29.143Z,10.24
2023-03-04T11:48:24.253Z,10.13
2023-03-04T11:51:19.133Z,10.02
2023-03-04T11:54:04.928Z,9.91
2023-03-04T11:56:45.678Z,9.80
2023-03-04T11:59:26.690Z,9.69
2023-03-04T12:02:10.368Z,9.62
2023-03-04T12:04:51.991Z,9.54
2023-03-04T12:07:46.733Z,9.51
2023-03-04T12:10:22.535Z,9.48
2023-03-04T12:13:19.416Z,9.50
2023-03-04T12:16:10.760Z,9.50
2023-03-04T12:18:58.008Z,9.50
2023-03-04T12:21:43.189Z,9.53
2023-03-04T12:24:23.346Z,9.58
2023-03-04T12:26:58.857Z,9.66
2023-03-04T12:29:56.093Z,9.74
2023-03-04T12:32:44.209Z,9.80
2023-03-04T12:35:36.447Z,9.88
2023-03-04T12:38:12.840Z,9.93
2023-03-04T12:40:49.521Z,10.00
2023-03-04T12:43:33.378Z,10.05
2023-03-04T12:46:36.041Z,10.11
2023-03-04T12:49:26.360Z,10.17
2023-03-04T12:51:55.720Z,10.20
2023-03-04T12:54:36.662Z,10.23
2023-03-04T12:57:22.964Z,10.27
2023-03-04T12:59:52.369Z,10.32
2023-03-04T13:02:36.328Z,10.37
2023-03-04T13:05:19.867Z,10.40
2023-03-04T13:08:23.082Z,10.43
2023-03-04T13:10:51.274Z,10.47
2023-03-04T13:13:37.060Z,10.51
2023-03-04T13:16:11.286Z,10.53
2023-03-04T13:18:41.182Z,10.52
2023-03-04T13:21:13.557Z,10.48
2023-03-04T13:23:40.762Z,10.42
2023-03-04T13:26:18.743Z,10.36
2023-03-04T13:28:45.526Z,10.27
2023-03-04T13:31:13.799Z,10.19
2023-03-04T13:33:47.854Z,10.09
2023-03-04T13:36:54.795Z,10.00
2023-03-04T13:39:27.615Z,9.94
2023-03-04T13:41:56.809Z,9.89
2023-03-04T13:44:36.134Z,9.88
2023-03-04T13:47:14.215Z,9.87
2023-03-04T13:49:40.790Z,9.87
2023-03-04T13:52:44.382Z,9.91
2023-03-04T13:55:34.557Z,9.94
2023-03-04T13:58:02.975Z,9.97
2023-03-04T14:00:29.754Z,10.02
2023-03-04T14:02:56.123Z,10.07
2023-03-04T14:05:22.546Z,10.13
2023-03-04T14:07:49.019Z,10.18
2023-03-04T14:10:25.025Z,10.25
2023-03-04T14:12:54.915Z,10.28
2023-03-04T14:15:24.271Z,10.30
2023-03-04T14:17:56.162Z,10.31
2023-03-04T14:20:30.012Z,10.30
2023-03-04T14:22:57.976Z,10.28
2023-03-04T14:25:28.322Z,10.24
2023-03-04T14:28:12.642Z,10.23
2023-03-04T14:30:43.772Z,10.18
2023-03-04T14:33:21.540Z,10.14
2023-03-04T14:35:51.131Z,10.07
2023-03-04T14:38:28.170Z,10.02
2023-03-04T14:41:05.441Z,9.95
2023-03-04T14:43:40.067Z,9.86
2023-03-04T14:46:11.391Z,9.82
2023-03-04T14:48:37.962Z,9.73
2023-03-04T14:51:04.530Z,9.65
2023-03-04T14:53:33.454Z,9.59
2023-03-04T14:56:05.027Z,9.52
2023-03-04T14:58:37.064Z,9.47
2023-03-04T15:01:13.282Z,9.41
2023-03-04T15:03:42.814Z,9.36
2023-03-04T15:06:18.782Z,9.32
2023-03-04T15:08:46.668Z,9.29
2023-03-04T15:11:26.137Z,9.29
2023-03-04T15:13:55.819Z,9.29
2023-03-04T15:16:25.625Z,9.30
2023-03-04T15:19:05.777Z,9.33
2023-03-04T15:21:40.716Z,9.34
2023-03-04T15:24:09.164Z,9.35
2023-03-04T15:26:40.434Z,9.35
2023-03-04T15:29:14.645Z,9.33
2023-03-04T15:31:41.142Z,9.31
2023-03-04T15:34:15.998Z,9.26
2023-03-04T15:36:46.581Z,9.20
2023-03-04T15:39:15.485Z,9.13
2023-03-04T15:41:42.040Z,9.06
2023-03-04T15:44:09.744Z,9.02
2023-03-04T15:46:36.374Z,8.98
2023-03-04T15:49:03.196Z,8.95
2023-03-04T15:51:29.950Z,8.92
2023-03-04T15:53:59.016Z,8.90
2023-03-04T15:56:28.380Z,8.88
2023-03-04T15:58:57.281Z,8.88
2023-03-04T16:01:24.362Z,8.88
2023-03-04T16:03:53.507Z,8.87
2023-03-04T16:06:24.125Z,8.88
2023-03-04T16:08:52.131Z,8.90
2023-03-04T16:11:25.030Z,8.91
2023-03-04T16:13:51.748Z,8.90
2023-03-04T16:16:18.798Z,8.90
2023-03-04T16:18:45.394Z,8.89
2023-03-04T16:21:14.808Z,8.90
2023-03-04T16:23:44.033Z,8.89
2023-03-04T16:26:13.897Z,8.88
2023-03-04T16:28:40.857Z,8.84
2023-03-04T16:31:07.808Z,8.83
2023-03-04T16:33:34.161Z,8.79
2023-03-04T16:36:00.768Z,8.77
2023-03-04T16:38:32.628Z,8.74
2023-03-04T16:41:02.020Z,8.72
2023-03-04T16:43:28.914Z,8.70
2023-03-04T16:45:55.624Z,8.67
2023-03-04T16:48:22.173Z,8.65
2023-03-04T16:50:48.584Z,8.61
2023-03-04T16:53:39.610Z,8.59
2023-03-04T16:56:11.876Z,8.57
2023-03-04T16:58:38.387Z,8.52
2023-03-04T17:01:04.923Z,8.46
2023-03-04T17:03:31.553Z,8.41
2023-03-04T17:05:58.521Z,8.35
2023-03-04T17:08:24.867Z,8.31
2023-03-04T17:10:52.404Z,8.27
2023-03-04T17:13:18.774Z,8.21
2023-03-04T17:15:46.820Z,8.16
2023-03-04T17:18:13.298Z,8.13
2023-03-04T17:20:40.397Z,8.07
2023-03-04T17:23:06.745Z,8.04
2023-03-04T17:25:33.292Z,7.99
2023-03-04T17:27:59.941Z,7.96
2023-03-04T17:30:26.509Z,7.94
2023-03-04T17:32:52.843Z,7.90
2023-03-04T17:35:19.466Z,7.89
2023-03-04T17:37:45.877Z,7.86
2023-03-04T17:40:15.417Z,7.84
2023-03-04T17:42:43.477Z,7.83
2023-03-04T17:45:11.108Z,7.81
2023-03-04T17:47:39.389Z,7.79
2023-03-04T17:50:07.535Z,7.77
2023-03-04T17:52:33.921Z,7.76
2023-03-04T17:55:00.335Z,7.75
2023-03-04T17:57:26.761Z,7.76
2023-03-04T17:59:53.106Z,7.74
2023-03-04T18:02:19.559Z,7.74
2023-03-04T18:04:48.234Z,7.73
2023-03-04T18:07:14.612Z,7.73
2023-03-04T18:09:40.983Z,7.73
2023-03-04T18:12:07.549Z,7.73
2023-03-04T18:14:33.922Z,7.74
2023-03-04T18:17:00.317Z,7.75
2023-03-04T18:19:26.662Z,7.75
2023-03-04T18:21:53.015Z,7.75
2023-03-04T18:24:19.340Z,7.76
2023-03-04T18:26:45.718Z,7.72
2023-03-04T18:29:12.234Z,7.68
2023-03-04T18:31:38.889Z,7.63
2023-03-04T18:34:05.761Z,7.55
2023-03-04T18:36:33.428Z,7.45
2023-03-04T18:39:00.123Z,7.35
2023-03-04T18:41:27.725Z,7.28
2023-03-04T18:43:54.605Z,7.20
2023-03-04T18:46:40.809Z,7.13
2023-03-04T18:49:08.917Z,7.11
2023-03-04T18:51:35.328Z,7.03
2023-03-04T18:54:01.677Z,6.98
2023-03-04T18:56:37.613Z,6.95
2023-03-04T18:59:12.578Z,6.90
2023-03-04T19:01:39.256Z,6.88
2023-03-04T19:04:06.321Z,6.84
2023-03-04T19:06:33.808Z,6.83
2023-03-04T19:09:00.466Z,6.81
2023-03-04T19:11:27.178Z,6.80
2023-03-04T19:13:53.526Z,6.79
2023-03-04T19:16:20.086Z,6.79
2023-03-04T19:18:46.453Z,6.80
2023-03-04T19:21:12.794Z,6.79
2023-03-04T19:23:39.957Z,6.82
2023-03-04T19:26:07.998Z,6.81
2023-03-04T19:28:35.444Z,6.81
2023-03-04T19:31:07.007Z,6.81
2023-03-04T19:33:37.643Z,6.84
2023-03-04T19:36:05.959Z,6.82
2023-03-04T19:38:33.534Z,6.81
2023-03-04T19:41:07.127Z,6.83
2023-03-04T19:43:36.788Z,6.84
2023-03-04T19:46:03.189Z,6.84
2023-03-04T19:48:29.693Z,6.86
2023-03-04T19:50:56.020Z,6.88
2023-03-04T19:53:22.372Z,6.88
2023-03-04T19:55:49.348Z,6.88
2023-03-04T19:58:16.418Z,6.89
2023-03-04T20:00:42.874Z,6.89
2023-03-04T20:03:09.424Z,6.89
2023-03-04T20:05:36.550Z,6.90
2023-03-04T20:08:03.313Z,6.90
2023-03-04T20:10:36.994Z,6.91
2023-03-04T20:13:05.039Z,6.91
2023-03-04T20:15:31.408Z,6.90
2023-03-04T20:17:57.945Z,6.91
2023-03-04T20:20:28.536Z,6.90
2023-03-04T20:22:56.197Z,6.88
2023-03-04T20:25:24.822Z,6.89
2023-03-04T20:27:51.185Z,6.87
2023-03-04T20:30:17.932Z,6.86
2023-03-04T20:32:44.892Z,6.83
2023-03-04T20:35:14.956Z,6.80
2023-03-04T20:37:42.649Z,6.76
2023-03-04T20:40:11.172Z,6.72
2023-03-04T20:42:37.605Z,6.68
2023-03-04T20:45:05.005Z,6.63
2023-03-04T20:47:31.406Z,6.60
2023-03-04T20:49:57.789Z,6.58
2023-03-04T20:52:24.155Z,6.55
2023-03-04T20:54:50.611Z,6.55
2023-03-04T20:57:16.967Z,6.55
2023-03-04T20:59:43.603Z,6.55
2023-03-04T21:02:14.432Z,6.56
2023-03-04T21:04:40.799Z,6.54
2023-03-04T21:07:07.129Z,6.55
2023-03-04T21:09:33.438Z,6.55
2023-03-04T21:12:01.156Z,6.54
2023-03-04T21:14:30.056Z,6.55
2023-03-04T21:17:02.244Z,6.56
2023-03-04T21:19:31.251Z,6.58
2023-03-04T21:22:00.047Z,6.60
2023-03-04T21:24:29.077Z,6.62
2023-03-04T21:26:55.568Z,6.63
2023-03-04T21:29:24.223Z,6.64
2023-03-04T21:31:54.362Z,6.66
2023-03-04T21:34:39.819Z,6.67
2023-03-04T21:37:06.268Z,6.68
2023-03-04T21:39:32.971Z,6.69
2023-03-04T21:42:00.214Z,6.68
2023-03-04T21:44:45.228Z,6.69
2023-03-04T21:47:14.749Z,6.69
2023-03-04T21:49:41.224Z,6.69
2023-03-04T21:52:07.560Z,6.69
2023-03-04T21:54:34.002Z,6.69
2023-03-04T21:57:00.337Z,6.69
2023-03-04T21:59:26.708Z,6.69
2023-03-04T22:01:54.941Z,6.69
2023-03-04T22:04:21.304Z,6.69
2023-03-04T22:06:47.608Z,6.71
2023-03-04T22:09:14.494Z,6.71
2023-03-04T22:11:40.832Z,6.72
2023-03-04T22:14:07.316Z,6.72
2023-03-04T22:16:37.453Z,6.73
2023-03-04T22:19:06.268Z,6.74
2023-03-04T22:21:32.708Z,6.73
2023-03-04T22:23:59.448Z,6.74
2023-03-04T22:26:30.137Z,6.73
2023-03-04T22:28:56.821Z,6.73
2023-03-04T22:31:30.061Z,6.72
2023-03-04T22:34:00.083Z,6.71
2023-03-04T22:36:28.817Z,6.69
2023-03-04T22:38:55.666Z,6.67
2023-03-04T22:41:22.840Z,6.66
2023-03-04T22:43:50.180Z,6.66
2023-03-04T22:46:19.999Z,6.64
2023-03-04T22:48:47.334Z,6.65
2023-03-04T22:51:13.781Z,6.64
2023-03-04T22:53:40.312Z,6.63
2023-03-04T22:56:07.546Z,6.63
2023-03-04T22:58:34.217Z,6.63
2023-03-04T23:01:02.569Z,6.61
2023-03-04T23:03:30.947Z,6.60
2023-03-04T23:06:13.366Z,6.62
2023-03-04T23:08:41.222Z,6.60
2023-03-04T23:11:16.171Z,6.60
2023-03-04T23:13:43.009Z,6.59
2023-03-04T23:16:12.078Z,6.59
2023-03-04T23:18:39.983Z,6.58
2023-03-04T23:21:11.850Z,6.59
2023-03-04T23:23:38.874Z,6.58
2023-03-04T23:26:06.133Z,6.59
2023-03-04T23:28:32.521Z,6.59
2023-03-04T23:30:59.025Z,6.61
2023-03-04T23:33:25.545Z,6.59
2023-03-04T23:35:52.001Z,6.59
2023-03-04T23:38:18.406Z,6.58
2023-03-04T23:40:44.741Z,6.55
2023-03-04T23:43:11.089Z,6.55
2023-03-04T23:45:38.170Z,6.53
2023-03-04T23:48:04.780Z,6.53
2023-03-04T23:50:32.157Z,6.51
2023-03-04T23:52:58.555Z,6.50
2023-03-04T23:55:24.921Z,6.51
2023-03-04T23:57:51.334Z,6.50
